Time;durP1;ratioP1;P1;durP2;ratioP2;P2;SDS_P1;SDS_P2;PMS_P1;PMS_P2;Temp;Humidity;BMP_temperature;BMP_pressure;BME280_temperature;BME280_humidity;BME280_pressure;Samples;Min_cycle;Max_cycle;Signal;HPM_P1;HPM_P2
2022/07/04 00:04:19;;;;;;;5.28;4.70;;;;;;;;;;10140569;28;20049;-69
2022/07/04 00:09:12;;;;;;;6.13;4.63;;;;;;;;;;10136687;28;20131;-68
2022/07/04 00:14:07;;;;;;;9.85;4.57;;;;;;;;;;10128043;28;20107;-68
2022/07/04 00:19:01;;;;;;;7.43;5.97;;;;;;;;;;10137682;28;20056;-68
2022/07/04 00:23:56;;;;;;;14.50;6.35;;;;;;;;;;10133388;28;20098;-68
2022/07/04 00:28:50;;;;;;;6.68;6.07;;;;;;;;;;10134190;28;20135;-68
2022/07/04 00:33:44;;;;;;;8.48;6.43;;;;;;;;;;10144772;28;20066;-68
2022/07/04 00:38:38;;;;;;;6.47;5.88;;;;;;;;;;10145638;28;20444;-68
2022/07/04 00:43:33;;;;;;;9.00;6.10;;;;;;;;;;10144026;28;20061;-68
2022/07/04 00:48:46;;;;;;;7.47;5.78;;;;;;;;;;10133713;28;20053;-68
2022/07/04 00:53:41;;;;;;;5.85;4.50;;;;;;;;;;10129952;28;20073;-68
2022/07/04 00:58:35;;;;;;;5.85;4.63;;;;;;;;;;10141585;28;20056;-69
2022/07/04 01:03:29;;;;;;;6.50;4.55;;;;;;;;;;10149168;28;20503;-68
2022/07/04 01:08:22;;;;;;;8.20;5.32;;;;;;;;;;10135753;28;20090;-68
2022/07/04 01:13:23;;;;;;;7.97;5.25;;;;;;;;;;10132588;28;20460;-69
2022/07/04 01:18:17;;;;;;;8.95;5.30;;;;;;;;;;10131098;28;20491;-68
2022/07/04 01:23:10;;;;;;;9.00;5.57;;;;;;;;;;10140588;28;20078;-68
2022/07/04 01:28:06;;;;;;;9.88;5.10;;;;;;;;;;10144030;28;20064;-68
2022/07/04 01:33:00;;;;;;;6.32;5.18;;;;;;;;;;10135302;28;20048;-70
2022/07/04 01:37:54;;;;;;;9.60;4.63;;;;;;;;;;10147129;28;20535;-68
2022/07/04 01:42:48;;;;;;;5.47;4.53;;;;;;;;;;10142000;28;20054;-69
2022/07/04 01:47:42;;;;;;;5.40;4.90;;;;;;;;;;10124859;28;20056;-68
2022/07/04 01:52:37;;;;;;;9.30;5.05;;;;;;;;;;10132721;28;20056;-68
2022/07/04 01:57:31;;;;;;;7.40;5.40;;;;;;;;;;10137879;28;20095;-68
2022/07/04 02:02:25;;;;;;;7.55;6.35;;;;;;;;;;10134122;28;20411;-69
2022/07/04 02:07:19;;;;;;;6.70;5.72;;;;;;;;;;10130183;28;20523;-69
2022/07/04 02:17:26;;;;;;;8.70;7.90;;;;;;;;;;10143283;28;20462;-68
2022/07/04 02:22:19;;;;;;;9.07;8.20;;;;;;;;;;10131484;28;20123;-69
2022/07/04 02:27:13;;;;;;;12.85;11.00;;;;;;;;;;10126659;28;20451;-69
2022/07/04 02:32:07;;;;;;;15.43;13.55;;;;;;;;;;10136439;28;20056;-69
2022/07/04 02:37:00;;;;;;;16.10;14.45;;;;;;;;;;10146602;28;20500;-69
2022/07/04 02:41:54;;;;;;;13.52;12.40;;;;;;;;;;10135179;28;20049;-69
2022/07/04 02:46:49;;;;;;;19.45;13.23;;;;;;;;;;10130738;28;20491;-69
2022/07/04 02:51:42;;;;;;;14.40;13.07;;;;;;;;;;10136392;28;20230;-69
2022/07/04 02:56:36;;;;;;;14.90;13.45;;;;;;;;;;10136072;28;20083;-69
2022/07/04 03:01:30;;;;;;;13.50;11.68;;;;;;;;;;10148135;28;20057;-68
2022/07/04 03:06:25;;;;;;;14.20;12.70;;;;;;;;;;10133562;28;20048;-69
2022/07/04 03:11:19;;;;;;;15.40;11.45;;;;;;;;;;10153538;28;20084;-68
2022/07/04 03:16:12;;;;;;;16.13;13.15;;;;;;;;;;10141699;28;20052;-67
2022/07/04 03:21:07;;;;;;;18.50;12.13;;;;;;;;;;10145769;28;20071;-68
2022/07/04 03:26:04;;;;;;;10.98;9.63;;;;;;;;;;10145346;28;20052;-68
2022/07/04 03:30:58;;;;;;;10.15;8.98;;;;;;;;;;10151316;28;20080;-69
2022/07/04 03:35:52;;;;;;;10.63;9.73;;;;;;;;;;10140578;28;20049;-69
2022/07/04 03:40:46;;;;;;;11.65;9.45;;;;;;;;;;10135556;28;20052;-68
2022/07/04 03:45:39;;;;;;;13.95;8.75;;;;;;;;;;10146891;28;20478;-69
2022/07/04 03:50:33;;;;;;;9.68;8.40;;;;;;;;;;10137646;28;20135;-69
2022/07/04 03:55:30;;;;;;;9.40;8.43;;;;;;;;;;10140741;28;20063;-68
2022/07/04 04:00:24;;;;;;;9.50;6.97;;;;;;;;;;10142366;28;20052;-69
2022/07/04 04:05:26;;;;;;;11.27;8.68;;;;;;;;;;10150442;28;20059;-68
2022/07/04 04:10:20;;;;;;;11.02;9.93;;;;;;;;;;10144849;28;20063;-67
2022/07/04 04:15:14;;;;;;;8.95;7.90;;;;;;;;;;10133438;28;20476;-68
2022/07/04 04:20:08;;;;;;;11.38;7.63;;;;;;;;;;10140971;28;20061;-68
2022/07/04 04:25:02;;;;;;;8.60;7.65;;;;;;;;;;10130997;28;20055;-68
2022/07/04 04:29:56;;;;;;;11.38;7.10;;;;;;;;;;10134660;28;20098;-68
2022/07/04 04:34:51;;;;;;;11.85;7.75;;;;;;;;;;10135117;28;20055;-68
2022/07/04 04:39:45;;;;;;;10.60;6.97;;;;;;;;;;10140849;28;20052;-68
2022/07/04 04:44:39;;;;;;;9.63;7.35;;;;;;;;;;10136089;28;20102;-67
2022/07/04 04:49:34;;;;;;;6.75;6.03;;;;;;;;;;10138494;28;20123;-67
2022/07/04 04:54:28;;;;;;;7.93;5.47;;;;;;;;;;10139721;28;20087;-67
2022/07/04 04:59:21;;;;;;;12.60;6.03;;;;;;;;;;10118064;28;20404;-67
2022/07/04 05:04:16;;;;;;;12.43;6.18;;;;;;;;;;10129320;28;20045;-68
2022/07/04 05:09:11;;;;;;;10.73;5.70;;;;;;;;;;10132168;28;20045;-68
2022/07/04 05:14:04;;;;;;;21.38;6.15;;;;;;;;;;10127199;28;20086;-68
2022/07/04 05:18:58;;;;;;;25.75;7.45;;;;;;;;;;10140130;28;20098;-67
2022/07/04 05:23:53;;;;;;;14.57;6.10;;;;;;;;;;10131011;28;20530;-67
2022/07/04 05:28:46;;;;;;;14.85;5.47;;;;;;;;;;10125310;28;20052;-68
2022/07/04 05:33:41;;;;;;;12.50;6.15;;;;;;;;;;10120519;28;20061;-68
2022/07/04 05:38:35;;;;;;;13.55;6.35;;;;;;;;;;10128995;28;20412;-69
2022/07/04 05:43:30;;;;;;;17.00;6.10;;;;;;;;;;10122505;28;20052;-68
2022/07/04 05:48:23;;;;;;;12.02;5.28;;;;;;;;;;10130593;28;20113;-68
2022/07/04 05:53:18;;;;;;;11.85;5.53;;;;;;;;;;10127731;28;20048;-67
2022/07/04 05:58:13;;;;;;;6.25;5.22;;;;;;;;;;10131368;28;20040;-66
2022/07/04 06:03:07;;;;;;;13.60;6.75;;;;;;;;;;10134729;28;20180;-67
2022/07/04 06:08:01;;;;;;;13.82;8.10;;;;;;;;;;10127186;28;20381;-66
2022/07/04 06:12:56;;;;;;;9.25;6.25;;;;;;;;;;10129504;28;20154;-66
2022/07/04 06:17:51;;;;;;;12.32;7.00;;;;;;;;;;10117324;28;20106;-67
2022/07/04 06:22:47;;;;;;;7.90;6.00;;;;;;;;;;10118057;28;20407;-67
2022/07/04 06:27:42;;;;;;;10.18;6.88;;;;;;;;;;10117287;28;20057;-67
2022/07/04 06:32:48;;;;;;;6.90;5.30;;;;;;;;;;10116033;28;20052;-67
2022/07/04 06:37:42;;;;;;;6.30;5.20;;;;;;;;;;10129232;28;20410;-68
2022/07/04 06:42:36;;;;;;;5.68;5.05;;;;;;;;;;10118316;28;20545;-68
2022/07/04 06:47:31;;;;;;;7.38;4.95;;;;;;;;;;10124545;28;20067;-67
2022/07/04 06:52:25;;;;;;;8.48;5.80;;;;;;;;;;10124074;28;20563;-68
2022/07/04 06:57:19;;;;;;;7.68;4.88;;;;;;;;;;10106967;28;20098;-68
2022/07/04 07:02:23;;;;;;;8.65;5.65;;;;;;;;;;10108578;28;20091;-68
2022/07/04 07:07:16;;;;;;;9.65;4.78;;;;;;;;;;10107451;28;20412;-68
2022/07/04 07:12:11;;;;;;;8.40;4.72;;;;;;;;;;10102953;28;20045;-68
2022/07/04 07:17:05;;;;;;;10.70;4.70;;;;;;;;;;10102053;28;20048;-68
2022/07/04 07:21:59;;;;;;;16.80;4.20;;;;;;;;;;10108163;28;20088;-66
2022/07/04 07:26:53;;;;;;;5.68;3.70;;;;;;;;;;10114804;28;20060;-67
2022/07/04 07:31:47;;;;;;;6.68;3.95;;;;;;;;;;10118807;28;20047;-67
2022/07/04 07:36:42;;;;;;;7.22;4.60;;;;;;;;;;10138038;28;20135;-67
2022/07/04 07:41:38;;;;;;;6.72;4.45;;;;;;;;;;10132800;28;20052;-66
2022/07/04 07:46:32;;;;;;;5.55;5.00;;;;;;;;;;10125393;28;20067;-66
2022/07/04 07:51:26;;;;;;;8.85;4.85;;;;;;;;;;10133545;28;20051;-65
2022/07/04 07:56:21;;;;;;;13.95;5.80;;;;;;;;;;10132448;28;20089;-64
2022/07/04 08:01:15;;;;;;;14.27;4.60;;;;;;;;;;10132988;28;20176;-65
2022/07/04 08:06:09;;;;;;;8.27;6.18;;;;;;;;;;10132275;28;20064;-64
2022/07/04 08:11:03;;;;;;;9.75;4.47;;;;;;;;;;10120548;28;20095;-66
2022/07/04 08:15:57;;;;;;;12.77;4.63;;;;;;;;;;10114987;28;20045;-64
2022/07/04 08:20:51;;;;;;;10.85;4.40;;;;;;;;;;10118249;28;20087;-67
2022/07/04 08:25:55;;;;;;;8.63;3.70;;;;;;;;;;10115558;28;20056;-66
2022/07/04 08:30:49;;;;;;;5.28;3.17;;;;;;;;;;10125568;28;20580;-65
2022/07/04 08:35:43;;;;;;;10.80;3.78;;;;;;;;;;10127692;28;20094;-65
2022/07/04 08:40:38;;;;;;;4.78;3.85;;;;;;;;;;10115836;28;20068;-68
2022/07/04 08:45:33;;;;;;;6.75;4.15;;;;;;;;;;10097918;28;20545;-67
2022/07/04 08:50:50;;;;;;;8.77;3.77;;;;;;;;;;10117911;28;20060;-67
2022/07/04 09:00:58;;;;;;;9.50;3.67;;;;;;;;;;10132548;28;20049;-67
2022/07/04 09:05:52;;;;;;;12.65;3.72;;;;;;;;;;10142063;28;20411;-65
2022/07/04 09:10:45;;;;;;;6.05;3.75;;;;;;;;;;10127174;28;20049;-66
2022/07/04 09:15:42;;;;;;;10.38;3.33;;;;;;;;;;10115745;28;20103;-66
2022/07/04 09:20:42;;;;;;;11.88;3.50;;;;;;;;;;10117637;28;20125;-65
2022/07/04 09:25:39;;;;;;;7.90;3.75;;;;;;;;;;10112061;28;20484;-66
2022/07/04 09:30:32;;;;;;;7.20;2.80;;;;;;;;;;10144226;28;20548;-67
2022/07/04 09:35:29;;;;;;;8.23;3.05;;;;;;;;;;10139733;28;20048;-66
2022/07/04 09:40:29;;;;;;;8.23;4.50;;;;;;;;;;10143952;28;20048;-66
2022/07/04 09:45:24;;;;;;;5.68;3.53;;;;;;;;;;10142057;28;20318;-66
2022/07/04 09:50:20;;;;;;;9.73;3.70;;;;;;;;;;10141754;28;20044;-66
2022/07/04 09:55:22;;;;;;;8.27;3.20;;;;;;;;;;10136431;28;20041;-65
2022/07/04 10:00:45;;;;;;;9.38;3.80;;;;;;;;;;10139542;28;20298;-67
2022/07/04 10:05:39;;;;;;;9.93;3.70;;;;;;;;;;10135242;28;20423;-64
2022/07/04 10:10:37;;;;;;;7.88;4.22;;;;;;;;;;10129721;28;20427;-67
2022/07/04 10:15:33;;;;;;;8.82;4.28;;;;;;;;;;10132295;28;20127;-66
2022/07/04 10:20:27;;;;;;;5.70;4.68;;;;;;;;;;10126931;28;20057;-66
2022/07/04 10:25:22;;;;;;;6.10;4.35;;;;;;;;;;10135776;28;20106;-65
2022/07/04 10:30:27;;;;;;;7.43;4.35;;;;;;;;;;10135708;28;20591;-65
2022/07/04 10:35:57;;;;;;;6.72;4.78;;;;;;;;;;10124201;28;20059;-66
2022/07/04 10:40:59;;;;;;;12.73;5.88;;;;;;;;;;10124372;28;20044;-66
2022/07/04 10:45:53;;;;;;;9.95;5.70;;;;;;;;;;10136072;28;20119;-66
2022/07/04 10:51:03;;;;;;;7.95;5.18;;;;;;;;;;10143128;28;20139;-66
2022/07/04 10:56:19;;;;;;;5.60;5.00;;;;;;;;;;10139863;28;20045;-65
2022/07/04 11:01:14;;;;;;;11.57;5.28;;;;;;;;;;10127150;28;20052;-66
2022/07/04 11:06:35;;;;;;;13.57;5.75;;;;;;;;;;10139993;28;20036;-67
2022/07/04 11:12:07;;;;;;;7.63;6.05;;;;;;;;;;10123787;28;20052;-64
2022/07/04 11:17:20;;;;;;;12.15;6.50;;;;;;;;;;9922248;28;20067;-64
2022/07/04 11:22:22;;;;;;;20.20;8.35;;;;;;;;;;10104585;28;20040;-64
2022/07/04 11:27:35;;;;;;;16.05;6.82;;;;;;;;;;10146714;28;20495;-63
2022/07/04 11:32:33;;;;;;;12.68;5.75;;;;;;;;;;10136715;28;20057;-64
2022/07/04 11:37:27;;;;;;;14.85;6.45;;;;;;;;;;10144631;28;20462;-65
2022/07/04 11:47:38;;;;;;;12.85;5.38;;;;;;;;;;10145831;28;20453;-65
2022/07/04 11:52:41;;;;;;;9.77;5.35;;;;;;;;;;10139329;28;20078;-64
2022/07/04 11:57:57;;;;;;;11.98;5.28;;;;;;;;;;10141520;28;20115;-64
2022/07/04 12:02:51;;;;;;;21.40;6.13;;;;;;;;;;10126440;28;20128;-64
2022/07/04 12:07:47;;;;;;;10.68;5.32;;;;;;;;;;10118449;28;20052;-64
2022/07/04 12:13:09;;;;;;;9.23;4.82;;;;;;;;;;10132212;28;20040;-64
2022/07/04 12:18:05;;;;;;;9.73;4.70;;;;;;;;;;10139429;28;20562;-65
2022/07/04 12:23:01;;;;;;;13.20;4.47;;;;;;;;;;10132843;28;20045;-65
2022/07/04 12:28:02;;;;;;;;;;;;;;;;;;10122442;28;20056;-65
2022/07/04 12:33:20;;;;;;;13.32;4.57;;;;;;;;;;10128646;28;20007;-64
2022/07/04 12:38:27;;;;;;;19.02;4.15;;;;;;;;;;10141424;28;20522;-67
2022/07/04 12:43:25;;;;;;;6.90;4.53;;;;;;;;;;10142475;28;20047;-66
2022/07/04 12:48:20;;;;;;;;;;;;;;;;;;10140502;28;20134;-66
2022/07/04 12:53:15;;;;;;;7.93;4.25;;;;;;;;;;10140601;28;19921;-66
2022/07/04 12:58:09;;;;;;;10.83;4.13;;;;;;;;;;10137660;28;20106;-66
2022/07/04 13:03:04;;;;;;;8.65;4.63;;;;;;;;;;10142984;28;20060;-66
2022/07/04 13:07:58;;;;;;;11.13;4.63;;;;;;;;;;10143708;28;20079;-66
2022/07/04 13:12:52;;;;;;;8.68;5.28;;;;;;;;;;10139983;28;20049;-66
2022/07/04 13:17:46;;;;;;;7.75;4.13;;;;;;;;;;10138550;28;20140;-66
2022/07/04 13:22:40;;;;;;;9.23;4.03;;;;;;;;;;10144280;28;20059;-65
2022/07/04 13:27:34;;;;;;;9.10;3.63;;;;;;;;;;10142624;28;20140;-64
2022/07/04 13:32:28;;;;;;;6.68;3.60;;;;;;;;;;10128865;28;20450;-65
2022/07/04 13:37:25;;;;;;;8.95;3.80;;;;;;;;;;10132329;28;20410;-64
2022/07/04 13:47:31;;;;;;;4.05;3.25;;;;;;;;;;10134421;28;20114;-65
2022/07/04 13:52:25;;;;;;;9.93;5.65;;;;;;;;;;10130928;28;20078;-65
2022/07/04 13:57:20;;;;;;;12.75;4.70;;;;;;;;;;10141203;28;20074;-67
2022/07/04 14:02:14;;;;;;;7.07;3.53;;;;;;;;;;10140810;28;20128;-66
2022/07/04 14:07:08;;;;;;;7.95;3.45;;;;;;;;;;10143835;28;20139;-66
2022/07/04 14:12:11;;;;;;;14.15;4.30;;;;;;;;;;10137259;28;20057;-66
2022/07/04 14:17:05;;;;;;;9.13;3.75;;;;;;;;;;10142323;28;20040;-66
2022/07/04 14:22:18;;;;;;;13.15;3.70;;;;;;;;;;10143704;28;20537;-66
2022/07/04 14:27:13;;;;;;;9.77;4.60;;;;;;;;;;10136730;28;20061;-66
2022/07/04 14:32:09;;;;;;;11.07;3.92;;;;;;;;;;10141675;28;20053;-65
2022/07/04 14:37:03;;;;;;;6.95;3.58;;;;;;;;;;10134940;28;20500;-66
2022/07/04 14:41:58;;;;;;;8.63;3.80;;;;;;;;;;10138795;28;20687;-66
2022/07/04 14:46:53;;;;;;;5.97;3.78;;;;;;;;;;10138570;28;20116;-66
2022/07/04 14:51:47;;;;;;;8.48;4.30;;;;;;;;;;10137168;28;20037;-65
2022/07/04 14:56:41;;;;;;;10.10;3.88;;;;;;;;;;10143834;28;20080;-67
2022/07/04 15:01:35;;;;;;;9.07;4.28;;;;;;;;;;10151148;28;20102;-64
2022/07/04 15:06:29;;;;;;;9.50;4.45;;;;;;;;;;10153538;28;20040;-63
2022/07/04 15:11:23;;;;;;;15.27;4.38;;;;;;;;;;10143123;28;20045;-63
2022/07/04 15:16:17;;;;;;;162.32;10.98;;;;;;;;;;10145646;28;20049;-63
2022/07/04 15:26:29;;;;;;;8.48;3.60;;;;;;;;;;10146207;28;20049;-63
2022/07/04 15:31:23;;;;;;;10.90;4.50;;;;;;;;;;10139921;28;20053;-62
2022/07/04 15:36:18;;;;;;;7.50;4.28;;;;;;;;;;10146642;28;20072;-63
2022/07/04 15:41:15;;;;;;;9.07;4.20;;;;;;;;;;10143986;28;20136;-64
2022/07/04 15:46:09;;;;;;;10.43;3.80;;;;;;;;;;10137368;28;20128;-66
2022/07/04 15:51:03;;;;;;;7.15;4.05;;;;;;;;;;10124131;28;20538;-65
2022/07/04 15:55:57;;;;;;;8.82;4.10;;;;;;;;;;10138536;28;20380;-67
2022/07/04 16:00:50;;;;;;;8.10;3.88;;;;;;;;;;10142538;28;20048;-66
2022/07/04 16:05:45;;;;;;;9.18;4.22;;;;;;;;;;10146766;28;20044;-66
2022/07/04 16:10:39;;;;;;;9.40;5.35;;;;;;;;;;10131671;28;20079;-66
2022/07/04 16:15:33;;;;;;;9.48;4.30;;;;;;;;;;10139427;28;20052;-65
2022/07/04 16:20:27;;;;;;;12.07;4.40;;;;;;;;;;10143187;28;20056;-64
2022/07/04 16:25:21;;;;;;;10.57;4.53;;;;;;;;;;10141926;28;20050;-64
2022/07/04 16:30:14;;;;;;;10.32;4.15;;;;;;;;;;10141318;28;20056;-64
2022/07/04 16:35:09;;;;;;;12.38;5.40;;;;;;;;;;10140232;28;20093;-65
2022/07/04 16:40:05;;;;;;;8.35;4.32;;;;;;;;;;10144195;28;20412;-66
2022/07/04 16:44:59;;;;;;;18.42;4.13;;;;;;;;;;10125451;28;20049;-67
2022/07/04 16:49:54;;;;;;;6.90;3.83;;;;;;;;;;10138560;28;20080;-67
2022/07/04 16:54:48;;;;;;;13.65;6.35;;;;;;;;;;10133224;28;20080;-67
2022/07/04 16:59:43;;;;;;;13.65;4.80;;;;;;;;;;10130689;28;20053;-66
2022/07/04 17:04:37;;;;;;;15.27;4.40;;;;;;;;;;10126771;28;20119;-66
2022/07/04 17:09:31;;;;;;;12.35;4.85;;;;;;;;;;10130025;28;20083;-66
2022/07/04 17:14:25;;;;;;;16.58;4.80;;;;;;;;;;10136963;28;20060;-66
2022/07/04 17:19:20;;;;;;;11.05;5.38;;;;;;;;;;10139289;28;20048;-66
2022/07/04 17:24:14;;;;;;;7.90;4.95;;;;;;;;;;10133011;28;20067;-70
2022/07/04 17:29:09;;;;;;;18.35;5.70;;;;;;;;;;10129473;28;20113;-69
2022/07/04 17:34:03;;;;;;;63.20;6.20;;;;;;;;;;10128112;28;20048;-68
2022/07/04 17:38:57;;;;;;;35.97;3.70;;;;;;;;;;10130689;28;20053;-69
2022/07/04 17:43:51;;;;;;;41.83;5.22;;;;;;;;;;10122194;28;20076;-68
2022/07/04 17:48:46;;;;;;;9.93;2.85;;;;;;;;;;10130194;28;20090;-67
2022/07/04 17:53:41;;;;;;;23.25;2.70;;;;;;;;;;10138344;28;20115;-67
2022/07/04 17:58:34;;;;;;;47.88;2.95;;;;;;;;;;10145466;28;20044;-68
2022/07/04 18:03:28;;;;;;;25.30;3.80;;;;;;;;;;10139201;28;20413;-67
2022/07/04 18:08:22;;;;;;;27.35;2.80;;;;;;;;;;10131491;28;20478;-68
2022/07/04 18:13:20;;;;;;;20.95;2.92;;;;;;;;;;10132521;28;20500;-67
2022/07/04 18:18:14;;;;;;;12.77;2.85;;;;;;;;;;10132668;28;20412;-67
2022/07/04 18:23:08;;;;;;;19.70;2.97;;;;;;;;;;10131394;28;20053;-68
2022/07/04 18:28:03;;;;;;;10.25;2.50;;;;;;;;;;10135215;28;20088;-72
2022/07/04 18:32:57;;;;;;;14.07;2.28;;;;;;;;;;10139208;28;20071;-69
2022/07/04 18:37:51;;;;;;;15.00;3.28;;;;;;;;;;10127025;28;20114;-71
2022/07/04 18:47:57;;;;;;;10.10;2.47;;;;;;;;;;10145643;28;20041;-70
2022/07/04 18:52:52;;;;;;;6.80;2.17;;;;;;;;;;10137957;28;20044;-70
2022/07/04 18:57:46;;;;;;;7.05;2.58;;;;;;;;;;10131737;28;20053;-76
2022/07/04 19:02:41;;;;;;;13.25;2.92;;;;;;;;;;10135104;28;20049;-72
2022/07/04 19:07:36;;;;;;;6.28;2.40;;;;;;;;;;10128494;28;20049;-71
2022/07/04 19:12:31;;;;;;;8.88;2.05;;;;;;;;;;10134765;28;20102;-78
2022/07/04 19:17:25;;;;;;;6.20;2.03;;;;;;;;;;10132857;28;20052;-78
2022/07/04 19:22:19;;;;;;;7.70;2.38;;;;;;;;;;10127910;28;20056;-79
2022/07/04 19:27:13;;;;;;;9.18;1.75;;;;;;;;;;10129904;28;20055;-74
2022/07/04 19:32:09;;;;;;;8.25;2.22;;;;;;;;;;10135873;28;20128;-83
2022/07/04 19:37:03;;;;;;;9.65;1.98;;;;;;;;;;10131646;28;20052;-77
2022/07/04 19:42:05;;;;;;;12.68;2.42;;;;;;;;;;10121955;28;20037;-77
2022/07/04 19:46:58;;;;;;;9.80;2.22;;;;;;;;;;10138304;28;20086;-77
2022/07/04 19:57:05;;;;;;;5.63;2.38;;;;;;;;;;10138034;28;20061;-79
2022/07/04 20:02:00;;;;;;;9.55;2.03;;;;;;;;;;10127328;28;20523;-76
2022/07/04 20:06:52;;;;;;;5.47;1.73;;;;;;;;;;10140694;28;20392;-79
2022/07/04 20:11:46;;;;;;;7.00;2.78;;;;;;;;;;10127622;28;20106;-80
2022/07/04 20:16:44;;;;;;;4.95;2.28;;;;;;;;;;10129341;28;20076;-76
2022/07/04 20:21:38;;;;;;;10.73;2.88;;;;;;;;;;10129742;28;20045;-74
2022/07/04 20:26:32;;;;;;;13.15;1.98;;;;;;;;;;10133031;28;20061;-76
2022/07/04 20:31:46;;;;;;;11.68;2.42;;;;;;;;;;10132565;28;20063;-76
2022/07/04 20:36:39;;;;;;;12.65;2.50;;;;;;;;;;10142270;28;20092;-76
2022/07/04 20:41:35;;;;;;;5.43;2.25;;;;;;;;;;10129375;28;20076;-80
2022/07/04 20:46:31;;;;;;;9.02;2.08;;;;;;;;;;10130830;28;20057;-78
2022/07/04 20:51:25;;;;;;;6.43;2.78;;;;;;;;;;10130837;28;20424;-79
2022/07/04 20:56:19;;;;;;;5.97;2.30;;;;;;;;;;10132343;28;20040;-75
2022/07/04 21:01:13;;;;;;;4.97;2.55;;;;;;;;;;10139602;28;20051;-73
2022/07/04 21:06:08;;;;;;;4.30;2.20;;;;;;;;;;10137492;28;20165;-77
2022/07/04 21:11:02;;;;;;;9.43;2.78;;;;;;;;;;10136045;28;20049;-73
2022/07/04 21:15:57;;;;;;;23.08;3.35;;;;;;;;;;10135692;28;20052;-73
2022/07/04 21:20:51;;;;;;;6.55;2.30;;;;;;;;;;10138302;28;20079;-74
2022/07/04 21:25:45;;;;;;;14.70;4.00;;;;;;;;;;10140878;28;20048;-73
2022/07/04 21:30:39;;;;;;;12.52;2.72;;;;;;;;;;10138612;28;20056;-75
2022/07/04 21:35:33;;;;;;;10.15;2.50;;;;;;;;;;10136213;28;20045;-75
2022/07/04 21:40:28;;;;;;;13.73;2.35;;;;;;;;;;10138801;28;20451;-75
2022/07/04 21:45:23;;;;;;;6.75;2.53;;;;;;;;;;10139637;28;20048;-75
2022/07/04 21:50:18;;;;;;;8.30;2.38;;;;;;;;;;10145823;28;20057;-75
2022/07/04 21:55:13;;;;;;;7.28;2.65;;;;;;;;;;10144128;28;20487;-75
2022/07/04 22:00:11;;;;;;;8.52;2.60;;;;;;;;;;10146611;28;20048;-74
2022/07/04 22:05:05;;;;;;;6.72;2.50;;;;;;;;;;10132703;28;20057;-74
2022/07/04 22:09:59;;;;;;;4.00;2.05;;;;;;;;;;10147409;28;20051;-74
2022/07/04 22:14:53;;;;;;;7.75;2.40;;;;;;;;;;10147052;28;20054;-73
2022/07/04 22:19:48;;;;;;;3.67;1.90;;;;;;;;;;10139850;28;20044;-73
2022/07/04 22:24:42;;;;;;;6.53;2.53;;;;;;;;;;10137801;28;20534;-74
2022/07/04 22:29:36;;;;;;;5.85;2.65;;;;;;;;;;10144849;28;20393;-73
2022/07/04 22:34:31;;;;;;;10.67;3.07;;;;;;;;;;10139235;28;20068;-77
2022/07/04 22:39:25;;;;;;;10.77;3.78;;;;;;;;;;10146736;28;20114;-76
2022/07/04 22:44:20;;;;;;;6.88;3.38;;;;;;;;;;10138028;28;20052;-76
2022/07/04 22:49:14;;;;;;;14.13;3.65;;;;;;;;;;10144047;28;20044;-77
2022/07/04 22:59:20;;;;;;;10.95;2.97;;;;;;;;;;10137749;28;20144;-77
2022/07/04 23:04:14;;;;;;;8.50;3.03;;;;;;;;;;10146258;28;20078;-76
2022/07/04 23:09:07;;;;;;;7.28;2.20;;;;;;;;;;10146726;28;20154;-76
2022/07/04 23:14:02;;;;;;;7.60;2.40;;;;;;;;;;10144719;28;20084;-77
2022/07/04 23:18:56;;;;;;;3.60;2.42;;;;;;;;;;10149169;28;20110;-77
2022/07/04 23:23:49;;;;;;;8.70;2.63;;;;;;;;;;10141788;28;20376;-76
2022/07/04 23:28:43;;;;;;;8.43;2.67;;;;;;;;;;10145440;28;20057;-76
2022/07/04 23:33:36;;;;;;;7.10;2.28;;;;;;;;;;10150276;28;20080;-77
2022/07/04 23:38:30;;;;;;;10.40;2.20;;;;;;;;;;10139906;28;20045;-75
2022/07/04 23:43:24;;;;;;;8.00;1.85;;;;;;;;;;10152122;28;20052;-76
2022/07/04 23:48:18;;;;;;;5.78;1.98;;;;;;;;;;10122870;28;20076;-76
2022/07/04 23:53:12;;;;;;;9.55;2.50;;;;;;;;;;10124961;28;20067;-76
2022/07/04 23:58:06;;;;;;;7.45;1.88;;;;;;;;;;10141938;28;20114;-75
